createdAt,value
2019-03-05T00:00:43.620Z,9.90
2019-03-05T00:03:12.346Z,9.80
2019-03-05T00:05:41.078Z,9.80
2019-03-05T00:08:09.751Z,10.00
2019-03-05T00:10:38.619Z,9.80
2019-03-05T00:13:07.322Z,10.10
2019-03-05T00:15:36.012Z,10.00
2019-03-05T00:18:05.213Z,9.90
2019-03-05T00:20:33.913Z,9.90
2019-03-05T00:23:02.590Z,10.00
2019-03-05T00:25:38.449Z,9.90
2019-03-05T00:28:22.086Z,10.00
2019-03-05T00:30:57.015Z,9.70
2019-03-05T00:33:44.173Z,9.70
2019-03-05T00:36:21.978Z,9.70
2019-03-05T00:39:14.610Z,9.90
2019-03-05T00:41:54.843Z,10.00
2019-03-05T00:44:58.418Z,10.00
2019-03-05T00:47:42.048Z,9.60
2019-03-05T00:50:37.450Z,9.80
2019-03-05T00:53:09.047Z,10.00
2019-03-05T00:55:52.807Z,10.00
2019-03-05T00:58:24.414Z,9.80
2019-03-05T01:01:08.522Z,9.80
2019-03-05T01:03:49.162Z,9.70
2019-03-05T01:06:16.668Z,10.00
2019-03-05T01:08:45.803Z,10.00
2019-03-05T01:11:14.502Z,9.80
2019-03-05T01:13:44.132Z,10.10
2019-03-05T01:16:14.934Z,10.30
2019-03-05T01:18:43.922Z,10.30
2019-03-05T01:21:12.645Z,10.00
2019-03-05T01:23:41.326Z,10.10
2019-03-05T01:26:10.365Z,10.10
2019-03-05T01:28:39.045Z,10.20
2019-03-05T01:31:15.627Z,10.10
2019-03-05T01:34:04.270Z,9.90
2019-03-05T01:36:40.104Z,10.00
2019-03-05T01:39:11.638Z,9.90
2019-03-05T01:41:40.337Z,9.70
2019-03-05T01:44:09.006Z,10.00
2019-03-05T01:46:37.715Z,10.00
2019-03-05T01:49:06.412Z,9.90
2019-03-05T01:51:35.132Z,10.00
2019-03-05T01:54:04.004Z,9.80
2019-03-05T01:56:32.698Z,10.10
2019-03-05T01:59:01.371Z,10.20
2019-03-05T02:01:30.068Z,9.80
2019-03-05T02:03:58.748Z,10.30
2019-03-05T02:06:27.467Z,10.20
2019-03-05T02:08:56.326Z,10.10
2019-03-05T02:11:25.026Z,10.10
2019-03-05T02:13:53.746Z,10.10
2019-03-05T02:16:22.440Z,10.10
2019-03-05T02:18:51.319Z,10.20
2019-03-05T02:21:19.998Z,10.10
2019-03-05T02:24:26.882Z,10.10
2019-03-05T02:26:59.228Z,9.80
2019-03-05T02:29:36.391Z,10.00
2019-03-05T02:32:16.948Z,9.80
2019-03-05T02:35:15.848Z,9.70
2019-03-05T02:37:50.445Z,9.60
2019-03-05T02:40:22.080Z,9.60
2019-03-05T02:43:02.580Z,9.50
2019-03-05T02:45:37.080Z,9.50
2019-03-05T02:48:29.856Z,9.40
2019-03-05T02:51:13.566Z,9.50
2019-03-05T02:53:54.146Z,9.50
2019-03-05T02:56:41.019Z,9.50
2019-03-05T02:59:08.563Z,9.40
2019-03-05T03:01:53.781Z,9.30
2019-03-05T03:04:41.839Z,9.60
2019-03-05T03:07:10.499Z,9.30
2019-03-05T03:09:51.134Z,9.10
2019-03-05T03:12:19.802Z,9.10
2019-03-05T03:14:48.586Z,9.10
2019-03-05T03:17:17.252Z,9.20
2019-03-05T03:19:46.051Z,9.30
2019-03-05T03:22:14.717Z,9.30
2019-03-05T03:24:43.416Z,9.10
2019-03-05T03:27:12.135Z,9.40
2019-03-05T03:29:40.808Z,9.20
2019-03-05T03:32:09.463Z,9.30
2019-03-05T03:34:38.242Z,9.20
2019-03-05T03:37:06.895Z,9.30
2019-03-05T03:39:35.626Z,9.40
2019-03-05T03:42:04.285Z,9.40
2019-03-05T03:44:32.978Z,9.30
2019-03-05T03:47:01.661Z,9.20
2019-03-05T03:49:30.415Z,9.20
2019-03-05T03:51:59.187Z,9.40
2019-03-05T03:54:27.906Z,9.30
2019-03-05T03:56:57.071Z,9.30
2019-03-05T03:59:25.818Z,9.20
2019-03-05T04:01:54.521Z,9.30
2019-03-05T04:04:23.294Z,9.40
2019-03-05T04:06:52.649Z,9.40
2019-03-05T04:09:21.311Z,9.20
2019-03-05T04:11:50.051Z,9.20
2019-03-05T04:14:18.697Z,9.20
2019-03-05T04:16:47.484Z,9.20
2019-03-05T04:19:17.740Z,9.40
2019-03-05T04:21:46.438Z,9.30
2019-03-05T04:24:15.111Z,9.40
2019-03-05T04:26:44.035Z,9.40
2019-03-05T04:29:12.699Z,9.50
2019-03-05T04:31:41.397Z,9.30
2019-03-05T04:34:10.069Z,9.30
2019-03-05T04:36:38.750Z,9.50
2019-03-05T04:39:10.365Z,9.40
2019-03-05T04:41:39.056Z,9.40
2019-03-05T04:44:07.750Z,9.40
2019-03-05T04:46:36.744Z,9.50
2019-03-05T04:49:26.569Z,9.30
2019-03-05T04:51:59.849Z,9.30
2019-03-05T04:54:28.506Z,9.30
2019-03-05T04:56:57.192Z,9.20
2019-03-05T04:59:26.078Z,9.20
2019-03-05T05:01:54.949Z,9.50
2019-03-05T05:04:23.610Z,9.50
2019-03-05T05:06:52.531Z,9.50
2019-03-05T05:09:21.194Z,9.10
2019-03-05T05:11:49.878Z,9.20
2019-03-05T05:14:18.590Z,9.40
2019-03-05T05:16:47.347Z,9.30
2019-03-05T05:19:16.091Z,9.30
2019-03-05T05:21:44.788Z,9.50
2019-03-05T05:24:13.454Z,9.30
2019-03-05T05:26:42.141Z,9.20
2019-03-05T05:29:10.803Z,9.20
2019-03-05T05:31:39.499Z,9.40
2019-03-05T05:34:08.175Z,9.10
2019-03-05T05:36:36.861Z,9.10
2019-03-05T05:39:08.120Z,9.20
2019-03-05T05:41:36.793Z,9.20
2019-03-05T05:44:05.466Z,9.30
2019-03-05T05:46:34.158Z,9.30
2019-03-05T05:49:02.807Z,9.50
2019-03-05T05:51:31.499Z,9.50
2019-03-05T05:54:00.185Z,9.40
2019-03-05T05:56:29.116Z,9.40
2019-03-05T05:58:57.872Z,9.30
2019-03-05T06:01:26.575Z,9.30
2019-03-05T06:03:55.218Z,9.40
2019-03-05T06:06:23.891Z,9.40
2019-03-05T06:08:52.620Z,9.40
2019-03-05T06:11:21.382Z,9.20
2019-03-05T06:13:50.315Z,9.30
2019-03-05T06:16:18.993Z,9.20
2019-03-05T06:18:47.782Z,9.50
2019-03-05T06:21:16.444Z,9.40
2019-03-05T06:23:45.122Z,9.60
2019-03-05T06:26:13.827Z,9.50
2019-03-05T06:28:42.543Z,9.40
2019-03-05T06:31:11.269Z,9.30
2019-03-05T06:33:39.964Z,9.40
2019-03-05T06:36:08.683Z,9.30
2019-03-05T06:38:37.386Z,9.50
2019-03-05T06:41:06.265Z,9.30
2019-03-05T06:43:34.965Z,9.40
2019-03-05T06:46:03.637Z,9.50
2019-03-05T06:48:32.504Z,9.60
2019-03-05T06:51:01.212Z,9.20
2019-03-05T06:53:29.970Z,9.30
2019-03-05T06:55:58.635Z,9.20
2019-03-05T06:58:27.352Z,9.30
2019-03-05T07:00:56.069Z,9.20
2019-03-05T07:03:24.761Z,9.20
2019-03-05T07:06:29.871Z,9.30
2019-03-05T07:09:04.940Z,9.20
2019-03-05T07:11:39.654Z,9.20
2019-03-05T07:14:34.222Z,9.30
2019-03-05T07:17:08.847Z,9.00
2019-03-05T07:19:58.311Z,9.00
2019-03-05T07:22:44.433Z,9.00
2019-03-05T07:25:13.114Z,9.20
2019-03-05T07:27:42.005Z,9.10
2019-03-05T07:30:16.692Z,8.90
2019-03-05T07:32:45.370Z,9.10
2019-03-05T07:35:15.739Z,9.00
2019-03-05T07:37:44.429Z,9.00
2019-03-05T07:40:13.303Z,9.20
2019-03-05T07:42:42.194Z,9.10
2019-03-05T07:45:11.891Z,9.20
2019-03-05T07:47:40.595Z,9.10
2019-03-05T07:50:11.692Z,9.20
2019-03-05T07:52:40.557Z,8.90
2019-03-05T07:55:13.868Z,8.90
2019-03-05T07:57:42.756Z,8.90
2019-03-05T08:00:14.217Z,9.30
2019-03-05T08:02:43.002Z,9.10
2019-03-05T08:05:13.663Z,8.80
2019-03-05T08:07:43.092Z,8.90
2019-03-05T08:10:17.811Z,8.90
2019-03-05T08:12:49.442Z,9.10
2019-03-05T08:15:31.863Z,8.70
2019-03-05T08:18:00.565Z,9.00
2019-03-05T08:20:29.231Z,8.90
2019-03-05T08:22:57.953Z,9.00
2019-03-05T08:25:26.620Z,8.90
2019-03-05T08:27:55.336Z,8.80
2019-03-05T08:30:24.078Z,8.70
2019-03-05T08:32:52.763Z,8.80
2019-03-05T08:35:21.442Z,8.80
2019-03-05T08:37:50.108Z,8.80
2019-03-05T08:40:20.297Z,8.90
2019-03-05T08:42:48.955Z,8.90
2019-03-05T08:45:28.427Z,8.80
2019-03-05T08:47:48.038Z,8.70
2019-03-05T08:50:16.752Z,9.00
2019-03-05T08:52:45.426Z,8.90
2019-03-05T08:55:14.120Z,9.20
2019-03-05T08:57:42.835Z,9.10
2019-03-05T09:00:14.626Z,8.90
2019-03-05T09:02:48.626Z,8.90
2019-03-05T09:05:16.279Z,8.80
2019-03-05T09:07:45.352Z,9.10
2019-03-05T09:10:20.041Z,9.00
2019-03-05T09:12:48.745Z,9.10
2019-03-05T09:15:19.519Z,9.20
2019-03-05T09:17:48.634Z,9.00
2019-03-05T09:20:20.867Z,9.10
2019-03-05T09:22:49.652Z,9.10
2019-03-05T09:25:39.177Z,9.00
2019-03-05T09:28:08.128Z,8.80
2019-03-05T09:30:36.827Z,9.10
2019-03-05T09:33:05.533Z,9.20
2019-03-05T09:35:34.693Z,9.20
2019-03-05T09:38:03.455Z,9.30
2019-03-05T09:40:33.127Z,9.30
2019-03-05T09:43:01.882Z,9.20
2019-03-05T09:45:30.641Z,9.10
2019-03-05T09:47:59.339Z,9.20
2019-03-05T09:50:28.013Z,9.40
2019-03-05T09:52:56.723Z,9.30
2019-03-05T09:55:26.325Z,9.70
2019-03-05T09:58:06.907Z,9.60
2019-03-05T10:00:28.176Z,9.70
2019-03-05T10:02:56.881Z,9.60
2019-03-05T10:05:25.564Z,9.60
2019-03-05T10:07:54.359Z,9.60
2019-03-05T10:10:30.246Z,9.60
2019-03-05T10:13:04.011Z,9.70
2019-03-05T10:15:30.204Z,9.70
2019-03-05T10:17:58.913Z,9.80
2019-03-05T10:20:29.909Z,9.70
2019-03-05T10:22:58.640Z,9.70
2019-03-05T10:25:28.562Z,10.00
2019-03-05T10:27:57.735Z,9.80
2019-03-05T10:30:34.629Z,9.90
2019-03-05T10:33:10.755Z,10.00
2019-03-05T10:35:39.635Z,10.10
2019-03-05T10:38:09.935Z,10.10
2019-03-05T10:40:50.440Z,10.20
2019-03-05T10:43:19.214Z,10.00
2019-03-05T10:45:48.904Z,10.10
2019-03-05T10:48:19.582Z,10.10
2019-03-05T10:50:48.691Z,9.90
2019-03-05T10:53:17.915Z,9.80
2019-03-05T10:55:46.622Z,10.20
2019-03-05T10:58:18.028Z,10.30
2019-03-05T11:00:51.046Z,10.30
2019-03-05T11:03:21.834Z,10.50
2019-03-05T11:05:51.961Z,10.20
2019-03-05T11:08:25.357Z,10.40
2019-03-05T11:10:54.771Z,10.30
2019-03-05T11:13:23.975Z,10.50
2019-03-05T11:16:03.676Z,10.50
2019-03-05T11:18:32.867Z,10.60
2019-03-05T11:21:02.165Z,10.80
2019-03-05T11:23:30.942Z,10.80
2019-03-05T11:25:59.763Z,10.60
2019-03-05T11:28:28.497Z,10.80
2019-03-05T11:30:57.182Z,10.70
2019-03-05T11:33:25.874Z,10.90
2019-03-05T11:35:54.590Z,10.80
2019-03-05T11:38:23.339Z,10.90
2019-03-05T11:40:52.710Z,10.70
2019-03-05T11:43:21.444Z,10.70
2019-03-05T11:45:50.345Z,10.90
2019-03-05T11:48:19.012Z,10.80
2019-03-05T11:50:47.713Z,10.60
2019-03-05T11:53:16.440Z,10.80
2019-03-05T11:55:45.165Z,10.80
2019-03-05T11:58:13.865Z,10.70
2019-03-05T12:00:46.860Z,10.90
2019-03-05T12:03:15.757Z,11.10
2019-03-05T12:05:44.534Z,11.30
2019-03-05T12:08:13.240Z,11.10
2019-03-05T12:10:42.012Z,11.40
2019-03-05T12:13:10.727Z,11.00
2019-03-05T12:15:44.263Z,11.00
2019-03-05T12:18:12.974Z,11.40
2019-03-05T12:20:41.844Z,11.20
2019-03-05T12:23:11.674Z,11.50
2019-03-05T12:25:41.183Z,11.40
2019-03-05T12:28:11.210Z,11.20
2019-03-05T12:30:40.651Z,11.30
2019-03-05T12:33:09.437Z,11.40
2019-03-05T12:35:38.315Z,11.50
2019-03-05T12:38:07.022Z,11.70
2019-03-05T12:40:35.726Z,11.60
2019-03-05T12:43:04.456Z,11.70
2019-03-05T12:45:33.151Z,11.40
2019-03-05T12:48:01.844Z,11.50
2019-03-05T12:50:31.336Z,11.60
2019-03-05T12:53:00.011Z,11.40
2019-03-05T12:55:29.043Z,11.60
2019-03-05T12:57:57.795Z,11.90
2019-03-05T13:00:28.601Z,11.80
2019-03-05T13:02:57.388Z,11.90
2019-03-05T13:05:26.102Z,11.60
2019-03-05T13:07:56.636Z,11.90
2019-03-05T13:10:34.788Z,11.90
2019-03-05T13:12:59.891Z,12.20
2019-03-05T13:15:42.362Z,12.10
2019-03-05T13:18:11.042Z,12.00
2019-03-05T13:20:39.774Z,12.20
2019-03-05T13:23:10.712Z,11.90
2019-03-05T13:25:39.797Z,11.90
2019-03-05T13:28:08.507Z,11.70
2019-03-05T13:30:40.087Z,11.50
2019-03-05T13:33:07.620Z,11.80
2019-03-05T13:35:36.506Z,11.80
2019-03-05T13:38:12.222Z,11.90
2019-03-05T13:40:40.976Z,11.80
2019-03-05T13:43:09.785Z,11.70
2019-03-05T13:45:42.834Z,12.20
2019-03-05T13:48:33.587Z,11.90
2019-03-05T13:51:23.212Z,12.20
2019-03-05T13:54:15.049Z,11.90
2019-03-05T13:56:58.566Z,11.80
2019-03-05T13:59:39.243Z,11.70
2019-03-05T14:02:09.086Z,11.90
2019-03-05T14:05:01.865Z,11.60
2019-03-05T14:07:50.042Z,11.40
2019-03-05T14:10:18.723Z,11.70
2019-03-05T14:12:47.393Z,11.80
2019-03-05T14:15:16.712Z,11.90
2019-03-05T14:17:45.394Z,12.20
2019-03-05T14:20:16.225Z,12.00
2019-03-05T14:22:44.974Z,12.20
2019-03-05T14:25:15.707Z,12.30
2019-03-05T14:27:44.472Z,12.20
2019-03-05T14:30:20.990Z,12.00
2019-03-05T14:32:49.577Z,12.30
2019-03-05T14:35:19.331Z,12.00
2019-03-05T14:37:48.502Z,12.10
2019-03-05T14:40:24.661Z,12.00
2019-03-05T14:42:50.815Z,12.10
2019-03-05T14:45:22.479Z,12.00
2019-03-05T14:47:52.129Z,12.40
2019-03-05T14:50:20.866Z,12.40
2019-03-05T14:52:49.596Z,12.20
2019-03-05T14:55:18.387Z,12.40
2019-03-05T14:57:47.443Z,12.40
2019-03-05T15:00:23.280Z,12.50
2019-03-05T15:02:52.622Z,12.50
2019-03-05T15:05:21.665Z,12.30
2019-03-05T15:07:50.411Z,12.20
2019-03-05T15:10:19.143Z,12.30
2019-03-05T15:12:48.288Z,12.30
2019-03-05T15:15:25.745Z,12.20
2019-03-05T15:17:54.581Z,12.20
2019-03-05T15:20:24.775Z,11.80
2019-03-05T15:22:53.596Z,12.00
2019-03-05T15:25:22.454Z,12.30
2019-03-05T15:27:51.145Z,11.90
2019-03-05T15:30:22.734Z,12.10
2019-03-05T15:32:51.452Z,12.40
2019-03-05T15:35:20.260Z,12.30
2019-03-05T15:37:49.024Z,12.30
2019-03-05T15:40:18.552Z,12.30
2019-03-05T15:42:47.340Z,12.50
2019-03-05T15:45:19.028Z,12.80
2019-03-05T15:47:47.777Z,12.40
2019-03-05T15:50:18.916Z,12.50
2019-03-05T15:52:47.678Z,12.80
2019-03-05T15:55:17.231Z,12.90
2019-03-05T15:57:45.933Z,12.50
2019-03-05T16:00:18.779Z,12.60
2019-03-05T16:02:47.526Z,12.40
2019-03-05T16:05:16.554Z,12.50
2019-03-05T16:07:48.070Z,12.50
2019-03-05T16:10:18.788Z,12.60
2019-03-05T16:12:47.702Z,12.50
2019-03-05T16:15:18.617Z,12.40
2019-03-05T16:17:47.258Z,12.20
2019-03-05T16:20:18.319Z,11.90
2019-03-05T16:22:47.145Z,12.00
2019-03-05T16:25:17.910Z,12.00
2019-03-05T16:27:46.579Z,12.40
2019-03-05T16:30:34.298Z,12.20
2019-03-05T16:33:09.005Z,12.40
2019-03-05T16:35:45.923Z,12.10
2019-03-05T16:38:18.739Z,12.50
2019-03-05T16:40:48.540Z,12.20
2019-03-05T16:43:21.851Z,12.30
2019-03-05T16:45:52.100Z,12.40
2019-03-05T16:48:25.477Z,12.50
2019-03-05T16:50:58.273Z,12.50
2019-03-05T16:53:34.741Z,12.30
2019-03-05T16:56:11.523Z,12.40
2019-03-05T16:58:47.771Z,12.30
2019-03-05T17:01:18.078Z,11.90
2019-03-05T17:03:53.983Z,12.00
2019-03-05T17:06:40.368Z,12.00
2019-03-05T17:09:10.765Z,12.20
2019-03-05T17:11:41.019Z,11.90
2019-03-05T17:14:09.890Z,12.10
2019-03-05T17:16:38.568Z,11.80
2019-03-05T17:19:07.281Z,12.50
2019-03-05T17:21:35.990Z,12.60
2019-03-05T17:24:05.599Z,12.40
2019-03-05T17:26:34.491Z,12.30
2019-03-05T17:29:03.172Z,12.60
2019-03-05T17:31:31.888Z,12.30
2019-03-05T17:34:00.764Z,12.10
2019-03-05T17:36:29.448Z,12.10
2019-03-05T17:38:58.220Z,12.40
2019-03-05T17:41:26.901Z,12.20
2019-03-05T17:43:55.618Z,12.40
2019-03-05T17:46:24.403Z,12.20
2019-03-05T17:48:53.143Z,12.00
2019-03-05T17:51:21.832Z,12.10
2019-03-05T17:53:50.575Z,11.90
2019-03-05T17:56:19.252Z,12.20
2019-03-05T17:58:48.035Z,11.80
2019-03-05T18:01:16.769Z,11.90
2019-03-05T18:03:45.446Z,11.90
2019-03-05T18:06:14.207Z,12.00
2019-03-05T18:08:42.978Z,11.90
2019-03-05T18:11:11.939Z,11.80
2019-03-05T18:13:40.922Z,11.70
2019-03-05T18:16:09.640Z,11.70
2019-03-05T18:18:38.846Z,11.60
2019-03-05T18:21:07.523Z,11.70
2019-03-05T18:23:36.251Z,11.70
2019-03-05T18:26:05.302Z,11.50
2019-03-05T18:28:34.005Z,11.40
2019-03-05T18:31:02.720Z,11.50
2019-03-05T18:33:31.439Z,11.70
2019-03-05T18:36:00.112Z,11.60
2019-03-05T18:38:28.918Z,11.80
2019-03-05T18:40:57.639Z,11.60
2019-03-05T18:43:26.304Z,11.60
2019-03-05T18:45:55.092Z,11.50
2019-03-05T18:48:23.832Z,11.60
2019-03-05T18:50:52.998Z,11.50
2019-03-05T18:53:22.024Z,11.50
2019-03-05T18:55:50.714Z,11.70
2019-03-05T18:58:19.567Z,11.40
2019-03-05T19:00:48.297Z,11.30
2019-03-05T19:03:18.986Z,11.50
2019-03-05T19:05:48.267Z,11.50
2019-03-05T19:08:16.993Z,11.40
2019-03-05T19:10:45.723Z,11.20
2019-03-05T19:13:14.392Z,11.20
2019-03-05T19:15:43.116Z,11.10
2019-03-05T19:18:11.788Z,11.30
2019-03-05T19:20:41.199Z,11.20
2019-03-05T19:23:09.875Z,10.80
2019-03-05T19:25:41.461Z,10.70
2019-03-05T19:28:11.450Z,10.70
2019-03-05T19:30:45.439Z,11.10
2019-03-05T19:33:14.144Z,10.90
2019-03-05T19:35:42.825Z,11.30
2019-03-05T19:38:11.553Z,11.00
2019-03-05T19:40:45.361Z,11.00
2019-03-05T19:43:14.053Z,10.90
2019-03-05T19:45:43.801Z,10.90
2019-03-05T19:48:12.508Z,10.70
2019-03-05T19:50:41.587Z,10.90
2019-03-05T19:53:10.325Z,10.90
2019-03-05T19:55:39.039Z,10.90
2019-03-05T19:58:17.186Z,11.10
2019-03-05T20:01:08.095Z,10.90
2019-03-05T20:03:36.797Z,11.10
2019-03-05T20:06:05.882Z,11.10
2019-03-05T20:08:40.219Z,10.90
2019-03-05T20:11:08.271Z,11.00
2019-03-05T20:13:37.256Z,10.90
2019-03-05T20:16:07.730Z,10.90
2019-03-05T20:18:36.573Z,10.70
2019-03-05T20:21:05.305Z,10.90
2019-03-05T20:23:35.027Z,11.00
2019-03-05T20:26:04.275Z,11.10
2019-03-05T20:28:33.031Z,10.70
2019-03-05T20:31:01.743Z,10.90
2019-03-05T20:33:30.465Z,10.90
2019-03-05T20:35:59.290Z,11.20
2019-03-05T20:38:28.013Z,11.00
2019-03-05T20:40:57.027Z,11.10
2019-03-05T20:43:25.808Z,11.20
2019-03-05T20:46:00.394Z,10.90
2019-03-05T20:48:29.097Z,11.10
2019-03-05T20:50:57.800Z,10.90
2019-03-05T20:53:26.595Z,11.00
2019-03-05T20:55:55.404Z,11.00
2019-03-05T20:58:24.675Z,11.20
2019-03-05T21:00:53.378Z,11.10
2019-03-05T21:03:23.758Z,10.90
2019-03-05T21:05:52.487Z,10.90
2019-03-05T21:08:21.291Z,10.70
2019-03-05T21:10:51.257Z,11.00
2019-03-05T21:13:20.174Z,10.80
2019-03-05T21:15:48.928Z,10.90
2019-03-05T21:18:19.685Z,11.00
2019-03-05T21:20:48.604Z,11.00
2019-03-05T21:23:17.752Z,11.00
2019-03-05T21:25:46.507Z,10.80
2019-03-05T21:28:15.210Z,10.60
2019-03-05T21:30:43.957Z,10.90
2019-03-05T21:33:12.647Z,10.80
2019-03-05T21:35:47.513Z,10.60
2019-03-05T21:38:16.202Z,10.80
2019-03-05T21:40:45.090Z,10.60
2019-03-05T21:43:14.047Z,10.70
2019-03-05T21:45:45.524Z,10.70
2019-03-05T21:48:14.216Z,10.40
2019-03-05T21:50:42.928Z,10.40
2019-03-05T21:53:11.591Z,10.60
2019-03-05T21:55:40.307Z,10.30
2019-03-05T21:58:09.375Z,10.50
2019-03-05T22:00:39.863Z,10.60
2019-03-05T22:03:08.591Z,10.30
2019-03-05T22:05:37.442Z,10.60
2019-03-05T22:08:06.151Z,10.30
2019-03-05T22:10:35.193Z,10.10
2019-03-05T22:13:03.889Z,10.00
2019-03-05T22:15:34.053Z,10.20
2019-03-05T22:18:02.853Z,10.10
2019-03-05T22:20:31.597Z,10.40
2019-03-05T22:23:01.060Z,10.20
2019-03-05T22:25:29.753Z,10.10
2019-03-05T22:27:58.454Z,10.20
2019-03-05T22:30:30.219Z,10.30
2019-03-05T22:32:58.958Z,10.30
2019-03-05T22:35:27.708Z,10.50
2019-03-05T22:37:58.151Z,10.30
2019-03-05T22:40:27.828Z,10.30
2019-03-05T22:42:56.607Z,10.10
2019-03-05T22:45:26.456Z,10.00
2019-03-05T22:47:55.189Z,10.50
2019-03-05T22:50:23.906Z,10.00
2019-03-05T22:52:52.885Z,9.90
2019-03-05T22:55:21.894Z,10.00
2019-03-05T22:57:55.624Z,10.30
2019-03-05T23:00:37.383Z,10.20
2019-03-05T23:03:08.874Z,10.30
2019-03-05T23:05:37.595Z,10.00
2019-03-05T23:08:06.550Z,10.30
2019-03-05T23:10:35.416Z,10.20
2019-03-05T23:13:04.560Z,10.00
2019-03-05T23:15:33.643Z,10.10
2019-03-05T23:18:02.335Z,10.30
2019-03-05T23:20:31.400Z,10.00
2019-03-05T23:23:00.322Z,10.10
2019-03-05T23:25:29.402Z,10.00
2019-03-05T23:27:58.107Z,10.30
2019-03-05T23:30:26.778Z,10.30
2019-03-05T23:32:55.668Z,10.30
2019-03-05T23:35:24.838Z,10.10
2019-03-05T23:37:53.530Z,10.30
2019-03-05T23:40:22.197Z,10.30
2019-03-05T23:42:50.885Z,10.40
2019-03-05T23:45:20.220Z,10.20
2019-03-05T23:47:49.048Z,10.20
2019-03-05T23:50:18.423Z,10.20
2019-03-05T23:52:47.244Z,10.30
2019-03-05T23:55:16.721Z,10.30
2019-03-05T23:57:45.792Z,10.60
